Pagina principale
METAR-TAF:

METAR-TAF

Aeroporti :

Cervia, Italia

Aeroporto di Cervia-Pisignano

latitudine: 44-13N, longitudine: 012-18E, altezza: 6 m

Osservazione

Il bollettino è stato emesso 1 ora e 16 minuti fa, alle 06:55 UTC
Vento 3 kt da nord/nord-ovest
Temperature 19°C
Umidità 73%
Pressione 1020 hPa
Visibilità 10 km o più
nessuna nube inferiore a 1500 m e nessun cumulonembo

METAR: LIPC 270655Z 34003KT CAVOK 19/14 Q1020 RMK SKC VIS MIN 9999 WIND THR11 //////KT WIND THR29 34004KT BLU

Ora: 10:11 (08:11 UTC)

Previsione

Il bollettino è stato emesso 3 ore e 11 minuti fa, alle 05:00 UTC
Previsione valida dal 27 alle 06 UTC al 27 alle 15 UTC
Vento 5 kt da sud-ovest
Visibilità 10 km o più
nessuna nube inferiore a 1500 m e nessun cumulonembo

TAF: LIPC 270500Z 2706/2715 22005KT CAVOK

Osservazioni e previsioni meteorologiche di più di 4000 aeroporti (messaggi METAR e TAF).

Le stazioni disponibili sono rappresentate dai dischi gialli e rossi sulla carta.

Puntare il mouse per vedere il nome della stazione.

Clicca sopra per visualizzare le osservazioni e previsioni meteorologiche.

Per cambiare la mappa : fare clic sui pulsanti verdi con una croce nera per ingrandire, il pulsante verde con un trattino per diminuire, o sulla freccia verde per le mappe adiacenti.


METAR-TAF: